WetterOnline ( https://www.wetteronline.de )

Wetter aktuell Mittelndorf

Aktuelles Wetter: Lichtenhain/Mittelndorf (352m)

6-stündlich | Neueste Meldungen
Ortszeit Temperatur Wetter
Do, 18.08. 20:00 25.3° C wolkig
Do, 18.08. 14:00 28.1° C bedeckt
Do, 18.08. 8:00 21.2° C leicht bewölkt
Do, 18.08. 2:00 19.3° C wolkig
Mi, 17.08. 20:00 28.1° C wolkig
Mi, 17.08. 14:00 30.2° C wolkig
Mi, 17.08. 8:00 19.2° C leicht bewölkt
Mi, 17.08. 2:00 20.5° C bedeckt
Ortszeit Temperatur Wetter
Fr, 19.08. 0:10 21.6° C bedeckt
Fr, 19.08. 0:00 21.9° C bedeckt
Do, 18.08. 23:50 21.9° C bedeckt
Do, 18.08. 23:40 22.0° C bedeckt
Do, 18.08. 23:30 22.3° C bedeckt
Do, 18.08. 23:20 22.3° C bedeckt
Do, 18.08. 23:00 22.7° C wolkig
Do, 18.08. 22:30 23.0° C wolkig
Do, 18.08. 22:00 23.1° C wolkig
Do, 18.08. 21:30 23.7° C wolkig
Ortszeit Relative Feuchte Sichtweite
Do, 18.08. 20:00 59% 35 km
Do, 18.08. 14:00 43% 45 km
Do, 18.08. 8:00 70% 55 km
Do, 18.08. 2:00 67% 55 km
Mi, 17.08. 20:00 37% 65 km
Mi, 17.08. 14:00 32% 35 km
Mi, 17.08. 8:00 77% 50 km
Mi, 17.08. 2:00 65% 55 km
Ortszeit Relative Feuchte Sichtweite
Fr, 19.08. 0:10 75% -
Fr, 19.08. 0:00 73% -
Do, 18.08. 23:50 73% -
Do, 18.08. 23:40 73% -
Do, 18.08. 23:30 71% 40 km
Do, 18.08. 23:20 71% -
Do, 18.08. 23:00 69% 35 km
Do, 18.08. 22:30 67% 35 km
Do, 18.08. 22:00 67% 35 km
Do, 18.08. 21:30 65% 35 km
Ortszeit Niederschlagsmenge Niederschlagsart
Do, 18.08. 20:00 0.0 l/m2 in 12 Std. -
Do, 18.08. 14:00 0.0 l/m2 in 6 Std. -
Do, 18.08. 8:00 0.0 l/m2 in 12 Std. -
Do, 18.08. 2:00 0.0 l/m2 in 6 Std. -
Mi, 17.08. 20:00 0.0 l/m2 in 12 Std. -
Mi, 17.08. 14:00 0.0 l/m2 in 6 Std. -
Mi, 17.08. 8:00 0.0 l/m2 in 12 Std. -
Mi, 17.08. 2:00 0.0 l/m2 in 6 Std. -
Ortszeit Niederschlagsmenge Niederschlagsart
Fr, 19.08. 0:10 keine Meldung -
Fr, 19.08. 0:00 0.0 l/m2 in 1 Std. -
Do, 18.08. 23:50 keine Meldung -
Do, 18.08. 23:40 keine Meldung -
Do, 18.08. 23:30 0.0 l/m2 in 1 Std. -
Do, 18.08. 23:20 keine Meldung -
Do, 18.08. 23:00 0.0 l/m2 in 1 Std. -
Do, 18.08. 22:30 0.0 l/m2 in 1 Std. -
Do, 18.08. 22:00 0.0 l/m2 in 1 Std. -
Do, 18.08. 21:30 0.0 l/m2 in 1 Std. -
Ortszeit Stärke Spitze Richtung
km/h Bft. km/h Grad Sektor
Do, 18.08. 20:00 9 2 24 240° SW
Do, 18.08. 14:00 7 2 22 210° SW
Do, 18.08. 8:00 0 0 14 - -
Do, 18.08. 2:00 2 1 13 240° SW
Mi, 17.08. 20:00 9 2 33 160° S
Mi, 17.08. 14:00 18 3 32 180° S
Mi, 17.08. 8:00 0 0 7 - -
Mi, 17.08. 2:00 4 1 11 290° W
Ortszeit Stärke Spitze Richtung
km/h Bft. km/h Grad Sektor
Fr, 19.08. 0:10 15 3 - 260° W
Fr, 19.08. 0:00 11 2 25 240° SW
Do, 18.08. 23:50 11 2 - 240° SW
Do, 18.08. 23:40 11 2 - 260° W
Do, 18.08. 23:30 11 2 25 280° W
Do, 18.08. 23:20 11 2 - 280° W
Do, 18.08. 23:00 13 3 28 270° W
Do, 18.08. 22:30 17 3 28 270° W
Do, 18.08. 22:00 13 3 19 270° W
Do, 18.08. 21:30 9 2 17 270° W
Ortszeit Untergrenze Bedeckung Gattung
total tief tief mittel hoch
Do, 18.08. 20:00 2400 m 7/8 4/8 - - -
Do, 18.08. 14:00 3300 m 8/8 8/8 - - -
Do, 18.08. 8:00 5700 m 4/8 4/8 - - -
Do, 18.08. 2:00 10500 m 8/8 0/8 - - -
Mi, 17.08. 20:00 10500 m 8/8 0/8 - - -
Mi, 17.08. 14:00 10500 m 8/8 0/8 - - -
Mi, 17.08. 8:00 2700 m 4/8 4/8 - - -
Mi, 17.08. 2:00 3000 m 8/8 8/8 - - -
Ortszeit Bedeckungsgrad in Achtel und Wolkenuntergrenze
Fr, 19.08. 0:10 8
Fr, 19.08. 0:00 2(3000m) 8(4200m) 8(5100m)
Do, 18.08. 23:50 2(3000m) 8(4200m) 8(5100m)
Do, 18.08. 23:40 8
Do, 18.08. 23:30 2(3300m) 7(4200m) 8(5100m)
Do, 18.08. 23:20 2(3300m) 7(4200m) 8(5100m)
Do, 18.08. 23:00 5(2400m) 7(5100m) 7(9000m)
Do, 18.08. 22:30 3(2400m) 8(9000m) 8(10500m)
Do, 18.08. 22:00 1(2400m) 6(9000m) 8(10500m)
Do, 18.08. 21:30 3(2400m) 8(10500m) 8(12000m)
Ortszeit Luftdruck NN (hPa) Tendenz (hPa in 3 Std.)
Do, 18.08. 20:00 1008 - 0,9
Do, 18.08. 14:00 1010 - 0,8
Do, 18.08. 8:00 1011 + 0,3
Do, 18.08. 2:00 1011 + 0,5
Mi, 17.08. 20:00 1010 0,0
Mi, 17.08. 14:00 1010 - 0,5
Mi, 17.08. 8:00 1012 + 0,5
Mi, 17.08. 2:00 1011 - 0,1
Ortszeit Luftdruck NN (hPa) Tendenz (hPa in 3 Std.)
Fr, 19.08. 0:10 1008 keine Meldung
Fr, 19.08. 0:00 1008 - 0,1
Do, 18.08. 23:50 1008 keine Meldung
Do, 18.08. 23:40 1008 keine Meldung
Do, 18.08. 23:30 1007 - 0,7
Do, 18.08. 23:20 1007 keine Meldung
Do, 18.08. 23:00 1008 - 0,6
Do, 18.08. 22:30 1007 - 0,5
Do, 18.08. 22:00 1007 - 0,8
Do, 18.08. 21:30 1008 - 0,6
Ortszeit Schneehöhe (cm)
Do, 18.08. 20:00 0
Do, 18.08. 14:00 0
Do, 18.08. 8:00 0
Do, 18.08. 2:00 0
Mi, 17.08. 20:00 0
Mi, 17.08. 14:00 0
Mi, 17.08. 8:00 0
Mi, 17.08. 2:00 0
Ortszeit Schneehöhe (cm)
Fr, 19.08. 0:10 0
Fr, 19.08. 0:00 0
Do, 18.08. 23:50 0
Do, 18.08. 23:40 0
Do, 18.08. 23:30 0
Do, 18.08. 23:20 0
Do, 18.08. 23:00 0
Do, 18.08. 22:30 0
Do, 18.08. 22:00 0
Do, 18.08. 21:30 0
Link zu dieser Seite / Seite empfehlen

Das Wetter in ...